sensor_id;sensor_type;location;lat;lon;timestamp;P1;durP1;ratioP1;P2;durP2;ratioP2
75059;SDS011;63640;59.264;18.116;2023-07-20T00:00:59;2.53;;;1.00;;
75059;SDS011;63640;59.264;18.116;2023-07-20T00:03:24;3.50;;;1.00;;
75059;SDS011;63640;59.264;18.116;2023-07-20T00:05:50;2.95;;;1.08;;
75059;SDS011;63640;59.264;18.116;2023-07-20T00:08:18;5.80;;;1.40;;
75059;SDS011;63640;59.264;18.116;2023-07-20T00:10:43;4.60;;;1.25;;
75059;SDS011;63640;59.264;18.116;2023-07-20T00:13:10;4.50;;;1.27;;
75059;SDS011;63640;59.264;18.116;2023-07-20T00:15:36;4.43;;;1.00;;
75059;SDS011;63640;59.264;18.116;2023-07-20T00:18:03;4.07;;;1.00;;
75059;SDS011;63640;59.264;18.116;2023-07-20T00:20:31;3.45;;;1.13;;
75059;SDS011;63640;59.264;18.116;2023-07-20T00:22:57;5.30;;;1.10;;
75059;SDS011;63640;59.264;18.116;2023-07-20T00:25:26;3.15;;;1.00;;
75059;SDS011;63640;59.264;18.116;2023-07-20T00:27:51;2.25;;;0.90;;
75059;SDS011;63640;59.264;18.116;2023-07-20T00:30:18;3.67;;;1.30;;
75059;SDS011;63640;59.264;18.116;2023-07-20T00:32:43;4.60;;;1.10;;
75059;SDS011;63640;59.264;18.116;2023-07-20T00:35:09;4.57;;;1.20;;
75059;SDS011;63640;59.264;18.116;2023-07-20T00:37:35;3.75;;;1.08;;
75059;SDS011;63640;59.264;18.116;2023-07-20T00:40:00;3.67;;;1.30;;
75059;SDS011;63640;59.264;18.116;2023-07-20T00:42:26;3.33;;;0.93;;
75059;SDS011;63640;59.264;18.116;2023-07-20T00:44:51;4.72;;;1.35;;
75059;SDS011;63640;59.264;18.116;2023-07-20T00:47:17;5.13;;;1.90;;
75059;SDS011;63640;59.264;18.116;2023-07-20T00:49:42;3.95;;;1.23;;
75059;SDS011;63640;59.264;18.116;2023-07-20T00:52:09;3.38;;;1.02;;
75059;SDS011;63640;59.264;18.116;2023-07-20T00:54:36;4.90;;;1.10;;
75059;SDS011;63640;59.264;18.116;2023-07-20T00:57:02;6.18;;;1.30;;
75059;SDS011;63640;59.264;18.116;2023-07-20T00:59:28;5.95;;;1.58;;
75059;SDS011;63640;59.264;18.116;2023-07-20T01:01:54;7.40;;;1.50;;
75059;SDS011;63640;59.264;18.116;2023-07-20T01:04:19;4.18;;;1.30;;
75059;SDS011;63640;59.264;18.116;2023-07-20T01:06:53;6.88;;;1.33;;
75059;SDS011;63640;59.264;18.116;2023-07-20T01:09:42;5.70;;;1.42;;
75059;SDS011;63640;59.264;18.116;2023-07-20T01:12:13;3.13;;;1.20;;
75059;SDS011;63640;59.264;18.116;2023-07-20T01:14:51;3.90;;;1.38;;
75059;SDS011;63640;59.264;18.116;2023-07-20T01:17:17;4.20;;;1.38;;
75059;SDS011;63640;59.264;18.116;2023-07-20T01:19:43;3.47;;;1.05;;
75059;SDS011;63640;59.264;18.116;2023-07-20T01:33:40;3.35;;;1.00;;
75059;SDS011;63640;59.264;18.116;2023-07-20T01:36:07;7.78;;;1.50;;
75059;SDS011;63640;59.264;18.116;2023-07-20T01:38:33;5.53;;;1.35;;
75059;SDS011;63640;59.264;18.116;2023-07-20T01:40:58;3.92;;;1.40;;
75059;SDS011;63640;59.264;18.116;2023-07-20T01:43:24;4.57;;;1.25;;
75059;SDS011;63640;59.264;18.116;2023-07-20T01:45:49;5.53;;;1.40;;
75059;SDS011;63640;59.264;18.116;2023-07-20T01:48:15;3.85;;;1.20;;
75059;SDS011;63640;59.264;18.116;2023-07-20T01:50:41;7.07;;;1.60;;
75059;SDS011;63640;59.264;18.116;2023-07-20T01:53:06;5.63;;;1.90;;
75059;SDS011;63640;59.264;18.116;2023-07-20T01:55:31;4.93;;;1.25;;
75059;SDS011;63640;59.264;18.116;2023-07-20T01:57:57;5.25;;;1.30;;
75059;SDS011;63640;59.264;18.116;2023-07-20T02:00:25;6.88;;;1.80;;
75059;SDS011;63640;59.264;18.116;2023-07-20T02:02:50;4.53;;;1.48;;
75059;SDS011;63640;59.264;18.116;2023-07-20T02:05:16;6.32;;;1.55;;
75059;SDS011;63640;59.264;18.116;2023-07-20T02:07:42;5.70;;;1.73;;
75059;SDS011;63640;59.264;18.116;2023-07-20T02:10:08;5.80;;;1.38;;
75059;SDS011;63640;59.264;18.116;2023-07-20T02:12:33;6.15;;;1.33;;
75059;SDS011;63640;59.264;18.116;2023-07-20T02:14:59;4.82;;;1.45;;
75059;SDS011;63640;59.264;18.116;2023-07-20T02:17:25;4.45;;;1.52;;
75059;SDS011;63640;59.264;18.116;2023-07-20T02:19:52;4.05;;;1.52;;
75059;SDS011;63640;59.264;18.116;2023-07-20T02:22:17;7.03;;;1.30;;
75059;SDS011;63640;59.264;18.116;2023-07-20T02:24:43;5.43;;;1.35;;
75059;SDS011;63640;59.264;18.116;2023-07-20T02:27:08;5.63;;;1.30;;
75059;SDS011;63640;59.264;18.116;2023-07-20T02:29:34;4.05;;;1.25;;
75059;SDS011;63640;59.264;18.116;2023-07-20T02:32:01;6.07;;;1.63;;
75059;SDS011;63640;59.264;18.116;2023-07-20T02:34:26;4.38;;;1.13;;
75059;SDS011;63640;59.264;18.116;2023-07-20T02:36:52;4.90;;;1.30;;
75059;SDS011;63640;59.264;18.116;2023-07-20T02:39:17;5.38;;;1.33;;
75059;SDS011;63640;59.264;18.116;2023-07-20T02:41:43;3.35;;;1.13;;
75059;SDS011;63640;59.264;18.116;2023-07-20T02:44:08;5.70;;;1.60;;
75059;SDS011;63640;59.264;18.116;2023-07-20T02:46:34;6.55;;;1.52;;
75059;SDS011;63640;59.264;18.116;2023-07-20T02:49:00;6.07;;;1.48;;
75059;SDS011;63640;59.264;18.116;2023-07-20T02:51:26;5.53;;;1.33;;
75059;SDS011;63640;59.264;18.116;2023-07-20T02:53:51;4.50;;;1.33;;
75059;SDS011;63640;59.264;18.116;2023-07-20T02:56:17;6.25;;;1.67;;
75059;SDS011;63640;59.264;18.116;2023-07-20T02:58:43;5.15;;;1.40;;
75059;SDS011;63640;59.264;18.116;2023-07-20T03:01:09;4.60;;;1.45;;
75059;SDS011;63640;59.264;18.116;2023-07-20T03:03:36;5.30;;;1.50;;
75059;SDS011;63640;59.264;18.116;2023-07-20T03:06:07;3.42;;;1.27;;
75059;SDS011;63640;59.264;18.116;2023-07-20T03:08:34;5.85;;;1.50;;
75059;SDS011;63640;59.264;18.116;2023-07-20T03:11:00;7.40;;;1.92;;
75059;SDS011;63640;59.264;18.116;2023-07-20T03:13:26;6.47;;;1.40;;
75059;SDS011;63640;59.264;18.116;2023-07-20T03:15:52;7.40;;;1.73;;
75059;SDS011;63640;59.264;18.116;2023-07-20T03:18:18;7.57;;;1.60;;
75059;SDS011;63640;59.264;18.116;2023-07-20T03:20:43;6.88;;;1.65;;
75059;SDS011;63640;59.264;18.116;2023-07-20T03:23:10;9.77;;;1.60;;
75059;SDS011;63640;59.264;18.116;2023-07-20T03:25:35;6.55;;;1.75;;
75059;SDS011;63640;59.264;18.116;2023-07-20T03:28:02;6.72;;;1.80;;
75059;SDS011;63640;59.264;18.116;2023-07-20T03:30:28;5.75;;;1.20;;
75059;SDS011;63640;59.264;18.116;2023-07-20T03:32:54;5.35;;;1.73;;
75059;SDS011;63640;59.264;18.116;2023-07-20T03:35:19;7.30;;;1.60;;
75059;SDS011;63640;59.264;18.116;2023-07-20T03:37:45;5.28;;;1.40;;
75059;SDS011;63640;59.264;18.116;2023-07-20T03:40:10;4.10;;;1.60;;
75059;SDS011;63640;59.264;18.116;2023-07-20T03:42:36;6.15;;;1.63;;
75059;SDS011;63640;59.264;18.116;2023-07-20T03:45:01;7.72;;;1.70;;
75059;SDS011;63640;59.264;18.116;2023-07-20T03:47:31;5.72;;;1.42;;
75059;SDS011;63640;59.264;18.116;2023-07-20T03:49:56;4.40;;;1.40;;
75059;SDS011;63640;59.264;18.116;2023-07-20T03:52:22;6.28;;;1.50;;
75059;SDS011;63640;59.264;18.116;2023-07-20T03:54:48;5.93;;;1.65;;
75059;SDS011;63640;59.264;18.116;2023-07-20T03:57:13;7.80;;;1.58;;
75059;SDS011;63640;59.264;18.116;2023-07-20T03:59:39;6.47;;;1.50;;
75059;SDS011;63640;59.264;18.116;2023-07-20T04:02:04;5.63;;;1.50;;
75059;SDS011;63640;59.264;18.116;2023-07-20T04:04:30;7.70;;;1.60;;
75059;SDS011;63640;59.264;18.116;2023-07-20T04:06:56;9.32;;;1.90;;
75059;SDS011;63640;59.264;18.116;2023-07-20T04:09:22;8.57;;;2.08;;
75059;SDS011;63640;59.264;18.116;2023-07-20T04:11:47;6.38;;;1.60;;
75059;SDS011;63640;59.264;18.116;2023-07-20T04:14:13;9.90;;;2.40;;
75059;SDS011;63640;59.264;18.116;2023-07-20T04:16:39;8.10;;;1.90;;
75059;SDS011;63640;59.264;18.116;2023-07-20T04:19:04;6.85;;;1.70;;
75059;SDS011;63640;59.264;18.116;2023-07-20T04:21:30;6.53;;;2.08;;
75059;SDS011;63640;59.264;18.116;2023-07-20T04:23:55;8.48;;;1.80;;
75059;SDS011;63640;59.264;18.116;2023-07-20T04:26:21;8.10;;;1.75;;
75059;SDS011;63640;59.264;18.116;2023-07-20T04:28:46;11.27;;;2.10;;
75059;SDS011;63640;59.264;18.116;2023-07-20T04:31:13;8.40;;;1.90;;
75059;SDS011;63640;59.264;18.116;2023-07-20T04:33:39;6.45;;;1.60;;
75059;SDS011;63640;59.264;18.116;2023-07-20T04:36:05;12.00;;;1.95;;
75059;SDS011;63640;59.264;18.116;2023-07-20T04:38:31;7.78;;;1.63;;
75059;SDS011;63640;59.264;18.116;2023-07-20T04:40:56;10.45;;;2.58;;
75059;SDS011;63640;59.264;18.116;2023-07-20T04:43:22;10.45;;;2.10;;
75059;SDS011;63640;59.264;18.116;2023-07-20T04:45:47;5.90;;;1.67;;
75059;SDS011;63640;59.264;18.116;2023-07-20T04:48:14;6.85;;;2.45;;
75059;SDS011;63640;59.264;18.116;2023-07-20T04:50:41;6.25;;;2.10;;
75059;SDS011;63640;59.264;18.116;2023-07-20T04:53:08;6.28;;;2.00;;
75059;SDS011;63640;59.264;18.116;2023-07-20T04:55:35;28.17;;;2.15;;
75059;SDS011;63640;59.264;18.116;2023-07-20T04:58:02;11.20;;;2.17;;
75059;SDS011;63640;59.264;18.116;2023-07-20T05:00:29;7.40;;;1.67;;
75059;SDS011;63640;59.264;18.116;2023-07-20T05:02:55;8.63;;;1.70;;
75059;SDS011;63640;59.264;18.116;2023-07-20T05:05:21;5.15;;;1.80;;
75059;SDS011;63640;59.264;18.116;2023-07-20T05:07:47;9.90;;;2.08;;
75059;SDS011;63640;59.264;18.116;2023-07-20T05:10:12;6.85;;;1.77;;
75059;SDS011;63640;59.264;18.116;2023-07-20T05:12:38;6.65;;;1.92;;
75059;SDS011;63640;59.264;18.116;2023-07-20T05:15:03;5.72;;;1.98;;
75059;SDS011;63640;59.264;18.116;2023-07-20T05:17:29;8.88;;;2.20;;
75059;SDS011;63640;59.264;18.116;2023-07-20T05:19:55;6.97;;;1.73;;
75059;SDS011;63640;59.264;18.116;2023-07-20T05:22:20;7.97;;;2.30;;
75059;SDS011;63640;59.264;18.116;2023-07-20T05:24:46;6.88;;;2.00;;
75059;SDS011;63640;59.264;18.116;2023-07-20T05:27:11;7.40;;;1.95;;
75059;SDS011;63640;59.264;18.116;2023-07-20T05:29:37;9.75;;;1.90;;
75059;SDS011;63640;59.264;18.116;2023-07-20T05:32:02;6.30;;;1.98;;
75059;SDS011;63640;59.264;18.116;2023-07-20T05:34:28;7.75;;;1.95;;
75059;SDS011;63640;59.264;18.116;2023-07-20T05:36:54;6.65;;;1.40;;
75059;SDS011;63640;59.264;18.116;2023-07-20T05:39:20;7.90;;;1.60;;
75059;SDS011;63640;59.264;18.116;2023-07-20T05:41:45;10.07;;;2.35;;
75059;SDS011;63640;59.264;18.116;2023-07-20T05:44:11;9.98;;;2.30;;
75059;SDS011;63640;59.264;18.116;2023-07-20T05:46:36;9.20;;;1.83;;
75059;SDS011;63640;59.264;18.116;2023-07-20T05:49:02;5.93;;;1.88;;
75059;SDS011;63640;59.264;18.116;2023-07-20T05:51:28;8.05;;;1.75;;
75059;SDS011;63640;59.264;18.116;2023-07-20T05:53:53;6.38;;;2.00;;
75059;SDS011;63640;59.264;18.116;2023-07-20T05:56:19;7.47;;;2.17;;
75059;SDS011;63640;59.264;18.116;2023-07-20T05:58:44;4.68;;;1.85;;
75059;SDS011;63640;59.264;18.116;2023-07-20T06:01:10;7.15;;;1.80;;
75059;SDS011;63640;59.264;18.116;2023-07-20T06:03:35;6.97;;;2.25;;
75059;SDS011;63640;59.264;18.116;2023-07-20T06:06:02;6.78;;;1.95;;
75059;SDS011;63640;59.264;18.116;2023-07-20T06:08:29;8.55;;;2.30;;
75059;SDS011;63640;59.264;18.116;2023-07-20T06:10:55;9.73;;;2.00;;
75059;SDS011;63640;59.264;18.116;2023-07-20T06:13:21;8.52;;;2.17;;
75059;SDS011;63640;59.264;18.116;2023-07-20T06:15:46;7.88;;;1.70;;
75059;SDS011;63640;59.264;18.116;2023-07-20T06:18:12;9.80;;;2.33;;
75059;SDS011;63640;59.264;18.116;2023-07-20T06:20:38;6.57;;;2.30;;
75059;SDS011;63640;59.264;18.116;2023-07-20T06:23:04;5.63;;;1.73;;
75059;SDS011;63640;59.264;18.116;2023-07-20T06:25:29;7.63;;;2.00;;
75059;SDS011;63640;59.264;18.116;2023-07-20T06:27:55;8.50;;;2.00;;
75059;SDS011;63640;59.264;18.116;2023-07-20T06:30:21;7.15;;;2.20;;
75059;SDS011;63640;59.264;18.116;2023-07-20T06:32:47;7.30;;;2.30;;
75059;SDS011;63640;59.264;18.116;2023-07-20T06:35:13;12.48;;;3.00;;
75059;SDS011;63640;59.264;18.116;2023-07-20T06:37:39;10.02;;;2.10;;
75059;SDS011;63640;59.264;18.116;2023-07-20T06:40:04;11.30;;;2.40;;
75059;SDS011;63640;59.264;18.116;2023-07-20T06:42:30;6.80;;;2.20;;
75059;SDS011;63640;59.264;18.116;2023-07-20T06:44:56;8.43;;;2.13;;
75059;SDS011;63640;59.264;18.116;2023-07-20T06:47:22;7.13;;;2.03;;
75059;SDS011;63640;59.264;18.116;2023-07-20T06:49:48;7.28;;;2.47;;
75059;SDS011;63640;59.264;18.116;2023-07-20T06:52:13;7.72;;;2.20;;
75059;SDS011;63640;59.264;18.116;2023-07-20T06:54:39;9.80;;;2.10;;
75059;SDS011;63640;59.264;18.116;2023-07-20T06:57:06;7.03;;;2.28;;
75059;SDS011;63640;59.264;18.116;2023-07-20T06:59:31;5.78;;;1.85;;
75059;SDS011;63640;59.264;18.116;2023-07-20T07:01:57;9.35;;;2.50;;
75059;SDS011;63640;59.264;18.116;2023-07-20T07:04:22;6.22;;;2.35;;
75059;SDS011;63640;59.264;18.116;2023-07-20T07:06:48;7.28;;;1.75;;
75059;SDS011;63640;59.264;18.116;2023-07-20T07:09:14;7.25;;;2.40;;
75059;SDS011;63640;59.264;18.116;2023-07-20T07:11:39;9.10;;;2.58;;
75059;SDS011;63640;59.264;18.116;2023-07-20T07:14:05;6.38;;;2.20;;
75059;SDS011;63640;59.264;18.116;2023-07-20T07:16:30;5.28;;;1.88;;
75059;SDS011;63640;59.264;18.116;2023-07-20T07:18:56;6.75;;;1.98;;
75059;SDS011;63640;59.264;18.116;2023-07-20T07:21:21;7.03;;;1.90;;
75059;SDS011;63640;59.264;18.116;2023-07-20T07:23:47;6.55;;;1.90;;
75059;SDS011;63640;59.264;18.116;2023-07-20T07:26:13;10.00;;;2.63;;
75059;SDS011;63640;59.264;18.116;2023-07-20T07:28:38;5.93;;;1.90;;
75059;SDS011;63640;59.264;18.116;2023-07-20T07:31:04;8.60;;;2.00;;
75059;SDS011;63640;59.264;18.116;2023-07-20T07:33:30;7.35;;;2.15;;
75059;SDS011;63640;59.264;18.116;2023-07-20T07:35:56;8.90;;;2.28;;
75059;SDS011;63640;59.264;18.116;2023-07-20T07:38:22;7.55;;;2.17;;
75059;SDS011;63640;59.264;18.116;2023-07-20T07:40:47;4.60;;;1.52;;
75059;SDS011;63640;59.264;18.116;2023-07-20T07:43:13;5.20;;;2.00;;
75059;SDS011;63640;59.264;18.116;2023-07-20T07:45:39;8.80;;;2.17;;
75059;SDS011;63640;59.264;18.116;2023-07-20T07:48:05;4.53;;;1.80;;
75059;SDS011;63640;59.264;18.116;2023-07-20T07:50:31;7.47;;;1.90;;
75059;SDS011;63640;59.264;18.116;2023-07-20T07:52:57;6.68;;;1.92;;
75059;SDS011;63640;59.264;18.116;2023-07-20T07:55:24;7.72;;;1.90;;
75059;SDS011;63640;59.264;18.116;2023-07-20T07:57:50;7.53;;;1.60;;
75059;SDS011;63640;59.264;18.116;2023-07-20T08:00:15;5.95;;;1.80;;
75059;SDS011;63640;59.264;18.116;2023-07-20T08:02:44;5.93;;;1.85;;
75059;SDS011;63640;59.264;18.116;2023-07-20T08:05:11;7.28;;;1.80;;
75059;SDS011;63640;59.264;18.116;2023-07-20T08:07:37;5.60;;;2.15;;
75059;SDS011;63640;59.264;18.116;2023-07-20T08:10:03;4.75;;;1.75;;
75059;SDS011;63640;59.264;18.116;2023-07-20T08:12:29;6.47;;;1.80;;
75059;SDS011;63640;59.264;18.116;2023-07-20T08:14:55;5.70;;;1.98;;
75059;SDS011;63640;59.264;18.116;2023-07-20T08:17:21;4.47;;;1.50;;
75059;SDS011;63640;59.264;18.116;2023-07-20T08:19:46;6.32;;;1.58;;
75059;SDS011;63640;59.264;18.116;2023-07-20T08:22:12;3.95;;;1.38;;
75059;SDS011;63640;59.264;18.116;2023-07-20T08:24:40;6.13;;;1.52;;
75059;SDS011;63640;59.264;18.116;2023-07-20T08:27:06;5.20;;;1.70;;
75059;SDS011;63640;59.264;18.116;2023-07-20T08:29:33;5.57;;;1.67;;
75059;SDS011;63640;59.264;18.116;2023-07-20T08:31:59;6.65;;;1.60;;
75059;SDS011;63640;59.264;18.116;2023-07-20T08:34:24;4.85;;;1.75;;
75059;SDS011;63640;59.264;18.116;2023-07-20T08:36:50;4.85;;;1.63;;
75059;SDS011;63640;59.264;18.116;2023-07-20T08:39:15;5.30;;;1.40;;
75059;SDS011;63640;59.264;18.116;2023-07-20T08:41:42;5.45;;;1.55;;
75059;SDS011;63640;59.264;18.116;2023-07-20T08:44:09;5.40;;;1.92;;
75059;SDS011;63640;59.264;18.116;2023-07-20T08:46:35;5.13;;;1.80;;
75059;SDS011;63640;59.264;18.116;2023-07-20T08:49:03;5.28;;;1.60;;
75059;SDS011;63640;59.264;18.116;2023-07-20T08:51:29;5.22;;;1.92;;
75059;SDS011;63640;59.264;18.116;2023-07-20T08:53:55;7.47;;;1.90;;
75059;SDS011;63640;59.264;18.116;2023-07-20T08:56:21;7.18;;;1.85;;
75059;SDS011;63640;59.264;18.116;2023-07-20T08:58:49;5.75;;;1.50;;
75059;SDS011;63640;59.264;18.116;2023-07-20T09:01:14;5.22;;;1.92;;
75059;SDS011;63640;59.264;18.116;2023-07-20T09:03:41;7.43;;;1.90;;
75059;SDS011;63640;59.264;18.116;2023-07-20T09:06:08;5.20;;;1.90;;
75059;SDS011;63640;59.264;18.116;2023-07-20T09:08:33;3.45;;;1.20;;
75059;SDS011;63640;59.264;18.116;2023-07-20T09:11:03;5.38;;;1.58;;
75059;SDS011;63640;59.264;18.116;2023-07-20T09:13:29;4.60;;;1.52;;
75059;SDS011;63640;59.264;18.116;2023-07-20T09:15:54;5.47;;;1.60;;
75059;SDS011;63640;59.264;18.116;2023-07-20T09:18:27;5.18;;;1.60;;
75059;SDS011;63640;59.264;18.116;2023-07-20T09:21:04;5.88;;;1.50;;
75059;SDS011;63640;59.264;18.116;2023-07-20T09:23:31;6.13;;;1.85;;
75059;SDS011;63640;59.264;18.116;2023-07-20T09:25:58;4.07;;;1.55;;
75059;SDS011;63640;59.264;18.116;2023-07-20T09:28:23;5.63;;;1.30;;
75059;SDS011;63640;59.264;18.116;2023-07-20T09:30:49;4.50;;;1.52;;
75059;SDS011;63640;59.264;18.116;2023-07-20T09:33:23;5.03;;;1.60;;
75059;SDS011;63640;59.264;18.116;2023-07-20T09:35:49;5.07;;;1.83;;
75059;SDS011;63640;59.264;18.116;2023-07-20T09:38:15;5.03;;;1.80;;
75059;SDS011;63640;59.264;18.116;2023-07-20T09:40:41;6.10;;;1.38;;
75059;SDS011;63640;59.264;18.116;2023-07-20T09:43:10;6.18;;;1.70;;
75059;SDS011;63640;59.264;18.116;2023-07-20T09:48:06;6.35;;;1.75;;
75059;SDS011;63640;59.264;18.116;2023-07-20T09:50:41;5.78;;;2.40;;
75059;SDS011;63640;59.264;18.116;2023-07-20T09:53:09;4.70;;;1.95;;
75059;SDS011;63640;59.264;18.116;2023-07-20T09:55:38;4.00;;;1.80;;
75059;SDS011;63640;59.264;18.116;2023-07-20T09:58:05;5.05;;;1.70;;
75059;SDS011;63640;59.264;18.116;2023-07-20T10:00:32;3.55;;;1.27;;
75059;SDS011;63640;59.264;18.116;2023-07-20T10:02:58;6.53;;;1.75;;
75059;SDS011;63640;59.264;18.116;2023-07-20T10:05:25;4.35;;;1.27;;
75059;SDS011;63640;59.264;18.116;2023-07-20T10:07:53;4.35;;;1.70;;
75059;SDS011;63640;59.264;18.116;2023-07-20T10:10:19;5.75;;;1.70;;
75059;SDS011;63640;59.264;18.116;2023-07-20T10:12:47;4.93;;;1.65;;
75059;SDS011;63640;59.264;18.116;2023-07-20T10:15:20;4.75;;;1.38;;
75059;SDS011;63640;59.264;18.116;2023-07-20T10:17:59;5.70;;;1.75;;
75059;SDS011;63640;59.264;18.116;2023-07-20T10:20:29;5.28;;;1.50;;
75059;SDS011;63640;59.264;18.116;2023-07-20T10:22:55;4.70;;;1.60;;
75059;SDS011;63640;59.264;18.116;2023-07-20T10:25:22;4.72;;;1.55;;
75059;SDS011;63640;59.264;18.116;2023-07-20T10:27:48;4.93;;;1.48;;
75059;SDS011;63640;59.264;18.116;2023-07-20T10:30:13;4.97;;;1.50;;
75059;SDS011;63640;59.264;18.116;2023-07-20T10:32:40;4.65;;;1.40;;
75059;SDS011;63640;59.264;18.116;2023-07-20T10:35:13;3.72;;;1.60;;
75059;SDS011;63640;59.264;18.116;2023-07-20T10:43:02;4.90;;;1.48;;
75059;SDS011;63640;59.264;18.116;2023-07-20T10:45:41;4.65;;;1.67;;
75059;SDS011;63640;59.264;18.116;2023-07-20T10:48:14;2.90;;;1.00;;
75059;SDS011;63640;59.264;18.116;2023-07-20T10:51:12;4.70;;;1.55;;
75059;SDS011;63640;59.264;18.116;2023-07-20T10:53:41;4.18;;;1.40;;
75059;SDS011;63640;59.264;18.116;2023-07-20T10:56:14;3.13;;;1.00;;
75059;SDS011;63640;59.264;18.116;2023-07-20T10:58:41;4.40;;;1.35;;
75059;SDS011;63640;59.264;18.116;2023-07-20T11:01:07;5.53;;;1.60;;
75059;SDS011;63640;59.264;18.116;2023-07-20T11:03:37;4.95;;;1.48;;
75059;SDS011;63640;59.264;18.116;2023-07-20T11:09:04;6.07;;;1.88;;
75059;SDS011;63640;59.264;18.116;2023-07-20T11:11:32;7.75;;;1.58;;
75059;SDS011;63640;59.264;18.116;2023-07-20T11:14:00;3.78;;;1.38;;
75059;SDS011;63640;59.264;18.116;2023-07-20T11:16:36;2.97;;;1.20;;
75059;SDS011;63640;59.264;18.116;2023-07-20T11:19:05;4.78;;;1.48;;
75059;SDS011;63640;59.264;18.116;2023-07-20T11:21:37;3.80;;;1.20;;
75059;SDS011;63640;59.264;18.116;2023-07-20T11:24:04;2.97;;;0.80;;
75059;SDS011;63640;59.264;18.116;2023-07-20T11:26:48;5.07;;;1.10;;
75059;SDS011;63640;59.264;18.116;2023-07-20T11:31:44;2.35;;;1.00;;
75059;SDS011;63640;59.264;18.116;2023-07-20T11:34:12;3.65;;;0.90;;
75059;SDS011;63640;59.264;18.116;2023-07-20T11:36:42;1.98;;;0.85;;
75059;SDS011;63640;59.264;18.116;2023-07-20T11:39:13;3.15;;;0.93;;
75059;SDS011;63640;59.264;18.116;2023-07-20T11:41:43;2.42;;;0.80;;
75059;SDS011;63640;59.264;18.116;2023-07-20T11:44:09;2.70;;;1.00;;
75059;SDS011;63640;59.264;18.116;2023-07-20T11:46:38;3.22;;;1.02;;
75059;SDS011;63640;59.264;18.116;2023-07-20T11:49:04;3.97;;;1.40;;
75059;SDS011;63640;59.264;18.116;2023-07-20T11:51:31;4.22;;;1.50;;
75059;SDS011;63640;59.264;18.116;2023-07-20T11:53:56;4.18;;;1.40;;
75059;SDS011;63640;59.264;18.116;2023-07-20T11:56:26;3.33;;;1.00;;
75059;SDS011;63640;59.264;18.116;2023-07-20T11:58:55;3.72;;;1.20;;
75059;SDS011;63640;59.264;18.116;2023-07-20T12:01:25;3.97;;;1.27;;
75059;SDS011;63640;59.264;18.116;2023-07-20T12:03:56;2.63;;;1.08;;
75059;SDS011;63640;59.264;18.116;2023-07-20T12:06:23;3.30;;;1.30;;
75059;SDS011;63640;59.264;18.116;2023-07-20T12:08:50;4.65;;;2.17;;
75059;SDS011;63640;59.264;18.116;2023-07-20T12:11:30;5.55;;;1.50;;
75059;SDS011;63640;59.264;18.116;2023-07-20T12:13:57;3.97;;;1.48;;
75059;SDS011;63640;59.264;18.116;2023-07-20T12:16:26;5.35;;;1.50;;
75059;SDS011;63640;59.264;18.116;2023-07-20T12:18:58;3.13;;;1.35;;
75059;SDS011;63640;59.264;18.116;2023-07-20T12:21:25;4.18;;;1.30;;
75059;SDS011;63640;59.264;18.116;2023-07-20T12:23:50;4.85;;;1.20;;
75059;SDS011;63640;59.264;18.116;2023-07-20T12:26:16;5.10;;;1.50;;
75059;SDS011;63640;59.264;18.116;2023-07-20T12:28:41;4.05;;;1.20;;
75059;SDS011;63640;59.264;18.116;2023-07-20T12:31:08;5.03;;;1.75;;
75059;SDS011;63640;59.264;18.116;2023-07-20T12:33:34;3.40;;;1.30;;
75059;SDS011;63640;59.264;18.116;2023-07-20T12:36:00;3.80;;;1.27;;
75059;SDS011;63640;59.264;18.116;2023-07-20T12:38:26;3.55;;;1.20;;
75059;SDS011;63640;59.264;18.116;2023-07-20T12:40:53;3.65;;;1.20;;
75059;SDS011;63640;59.264;18.116;2023-07-20T12:43:20;2.83;;;1.20;;
75059;SDS011;63640;59.264;18.116;2023-07-20T12:45:46;5.22;;;1.35;;
75059;SDS011;63640;59.264;18.116;2023-07-20T12:48:12;3.90;;;1.30;;
75059;SDS011;63640;59.264;18.116;2023-07-20T12:50:37;4.53;;;1.27;;
75059;SDS011;63640;59.264;18.116;2023-07-20T12:53:03;4.22;;;1.30;;
75059;SDS011;63640;59.264;18.116;2023-07-20T12:55:29;3.22;;;1.10;;
75059;SDS011;63640;59.264;18.116;2023-07-20T12:57:54;4.30;;;1.17;;
75059;SDS011;63640;59.264;18.116;2023-07-20T13:00:20;4.00;;;1.38;;
75059;SDS011;63640;59.264;18.116;2023-07-20T13:02:48;5.10;;;1.60;;
75059;SDS011;63640;59.264;18.116;2023-07-20T13:05:14;4.72;;;1.40;;
75059;SDS011;63640;59.264;18.116;2023-07-20T13:07:40;6.00;;;1.67;;
75059;SDS011;63640;59.264;18.116;2023-07-20T13:10:07;3.95;;;1.23;;
75059;SDS011;63640;59.264;18.116;2023-07-20T13:12:33;5.50;;;1.60;;
75059;SDS011;63640;59.264;18.116;2023-07-20T13:15:01;4.20;;;1.55;;
75059;SDS011;63640;59.264;18.116;2023-07-20T13:17:30;4.95;;;1.20;;
75059;SDS011;63640;59.264;18.116;2023-07-20T13:19:56;4.88;;;1.52;;
75059;SDS011;63640;59.264;18.116;2023-07-20T13:22:22;5.10;;;1.40;;
75059;SDS011;63640;59.264;18.116;2023-07-20T13:24:48;3.45;;;1.40;;
75059;SDS011;63640;59.264;18.116;2023-07-20T13:27:15;3.78;;;1.30;;
75059;SDS011;63640;59.264;18.116;2023-07-20T13:29:41;4.75;;;1.15;;
75059;SDS011;63640;59.264;18.116;2023-07-20T13:32:07;4.05;;;1.63;;
75059;SDS011;63640;59.264;18.116;2023-07-20T13:34:33;3.83;;;1.40;;
75059;SDS011;63640;59.264;18.116;2023-07-20T13:36:58;3.22;;;1.15;;
75059;SDS011;63640;59.264;18.116;2023-07-20T13:39:24;6.00;;;1.40;;
75059;SDS011;63640;59.264;18.116;2023-07-20T13:41:52;3.90;;;1.27;;
75059;SDS011;63640;59.264;18.116;2023-07-20T13:44:18;3.70;;;1.30;;
75059;SDS011;63640;59.264;18.116;2023-07-20T13:46:45;3.70;;;1.23;;
75059;SDS011;63640;59.264;18.116;2023-07-20T13:49:11;4.30;;;1.38;;
75059;SDS011;63640;59.264;18.116;2023-07-20T13:51:36;5.28;;;1.33;;
75059;SDS011;63640;59.264;18.116;2023-07-20T13:54:05;3.20;;;1.30;;
75059;SDS011;63640;59.264;18.116;2023-07-20T13:56:30;3.30;;;1.40;;
75059;SDS011;63640;59.264;18.116;2023-07-20T13:58:56;3.60;;;1.33;;
75059;SDS011;63640;59.264;18.116;2023-07-20T14:01:22;2.97;;;1.10;;
75059;SDS011;63640;59.264;18.116;2023-07-20T14:03:49;4.47;;;1.35;;
75059;SDS011;63640;59.264;18.116;2023-07-20T14:06:18;5.28;;;1.33;;
75059;SDS011;63640;59.264;18.116;2023-07-20T14:08:43;3.33;;;1.02;;
75059;SDS011;63640;59.264;18.116;2023-07-20T14:11:12;4.28;;;1.30;;
75059;SDS011;63640;59.264;18.116;2023-07-20T14:13:38;3.95;;;1.45;;
75059;SDS011;63640;59.264;18.116;2023-07-20T14:16:04;4.55;;;1.35;;
75059;SDS011;63640;59.264;18.116;2023-07-20T14:18:29;3.92;;;1.23;;
75059;SDS011;63640;59.264;18.116;2023-07-20T14:20:55;4.30;;;1.40;;
75059;SDS011;63640;59.264;18.116;2023-07-20T14:23:21;3.97;;;1.40;;
75059;SDS011;63640;59.264;18.116;2023-07-20T14:25:47;2.90;;;1.17;;
75059;SDS011;63640;59.264;18.116;2023-07-20T14:28:13;5.65;;;1.33;;
75059;SDS011;63640;59.264;18.116;2023-07-20T14:30:38;5.65;;;1.70;;
75059;SDS011;63640;59.264;18.116;2023-07-20T14:33:04;4.90;;;1.38;;
75059;SDS011;63640;59.264;18.116;2023-07-20T14:35:29;3.78;;;1.40;;
75059;SDS011;63640;59.264;18.116;2023-07-20T14:37:55;3.75;;;1.48;;
75059;SDS011;63640;59.264;18.116;2023-07-20T14:40:21;5.07;;;1.40;;
75059;SDS011;63640;59.264;18.116;2023-07-20T14:42:46;4.38;;;1.00;;
75059;SDS011;63640;59.264;18.116;2023-07-20T14:45:12;3.95;;;1.20;;
75059;SDS011;63640;59.264;18.116;2023-07-20T14:47:37;3.42;;;1.33;;
75059;SDS011;63640;59.264;18.116;2023-07-20T14:50:03;4.97;;;1.40;;
75059;SDS011;63640;59.264;18.116;2023-07-20T14:52:29;3.20;;;1.30;;
75059;SDS011;63640;59.264;18.116;2023-07-20T14:54:55;4.50;;;1.40;;